createdAt,value
2019-03-23T00:00:53.551Z,-15654.94
2019-03-23T00:03:25.096Z,-15654.94
2019-03-23T00:05:57.233Z,-15654.94
2019-03-23T00:08:29.532Z,-15654.94
2019-03-23T00:11:01.597Z,-15654.94
2019-03-23T00:13:32.995Z,-15654.94
2019-03-23T00:16:04.729Z,-15654.94
2019-03-23T00:18:36.119Z,-15654.94
2019-03-23T00:21:07.498Z,-15654.94
2019-03-23T00:23:39.258Z,-15654.94
2019-03-23T00:26:13.201Z,-15654.94
2019-03-23T00:28:43.911Z,-15654.94
2019-03-23T00:31:15.790Z,-15654.94
2019-03-23T00:33:47.171Z,-15654.94
2019-03-23T00:36:19.026Z,-15654.94
2019-03-23T00:38:50.807Z,-15654.94
2019-03-23T00:41:22.236Z,-15654.94
2019-03-23T00:43:53.537Z,-15654.94
2019-03-23T00:46:25.091Z,-15654.94
2019-03-23T00:48:56.808Z,-15654.94
2019-03-23T00:51:28.549Z,-15654.94
2019-03-23T00:53:59.931Z,-15654.94
2019-03-23T00:56:31.557Z,-15654.94
2019-03-23T00:59:02.946Z,-15654.94
2019-03-23T01:01:35.082Z,-15654.94
2019-03-23T01:04:06.983Z,-15654.94
2019-03-23T01:06:38.387Z,-15654.94
2019-03-23T01:09:11.390Z,-15654.94
2019-03-23T01:11:43.820Z,-15654.94
2019-03-23T01:14:15.330Z,-15654.94
2019-03-23T01:16:46.815Z,-15654.94
2019-03-23T01:19:18.543Z,-15654.94
2019-03-23T01:21:50.063Z,-15654.94
2019-03-23T01:24:21.753Z,-15654.94
2019-03-23T01:26:53.288Z,-15654.94
2019-03-23T01:29:25.403Z,-15654.94
2019-03-23T01:31:57.467Z,-15654.94
2019-03-23T01:34:28.937Z,-15654.94
2019-03-23T01:37:03.001Z,-15654.94
2019-03-23T01:39:35.101Z,-15654.94
2019-03-23T01:42:07.189Z,-15654.94
2019-03-23T01:44:39.324Z,-15654.94
2019-03-23T01:47:10.733Z,-15654.94
2019-03-23T01:49:42.470Z,-15654.94
2019-03-23T01:52:14.286Z,-15654.94
2019-03-23T01:54:46.046Z,-15654.94
2019-03-23T01:57:17.567Z,-15654.94
2019-03-23T01:59:48.959Z,-15654.94
2019-03-23T02:02:21.221Z,-15654.94
2019-03-23T02:04:53.450Z,-15654.94
2019-03-23T02:07:24.879Z,-15654.94
2019-03-23T02:09:56.627Z,-15654.94
2019-03-23T02:12:28.556Z,-15654.94
2019-03-23T02:15:00.329Z,-15654.94
2019-03-23T02:17:32.411Z,-15654.94
2019-03-23T02:20:04.021Z,-15654.94
2019-03-23T02:22:35.403Z,-15654.94
2019-03-23T02:25:07.616Z,-15654.94
2019-03-23T02:27:39.264Z,-15654.94
2019-03-23T02:30:11.589Z,-15654.94
2019-03-23T02:32:42.969Z,-15654.94
2019-03-23T02:35:14.915Z,-15654.94
2019-03-23T02:37:46.287Z,-15654.94
2019-03-23T02:40:17.985Z,-15654.94
2019-03-23T02:42:49.382Z,-15654.94
2019-03-23T02:45:21.144Z,-15654.94
2019-03-23T02:47:52.788Z,-15654.94
2019-03-23T02:50:24.222Z,-15654.94
2019-03-23T02:52:55.957Z,-15654.94
2019-03-23T02:55:27.809Z,-15654.94
2019-03-23T02:57:59.598Z,-15654.94
2019-03-23T03:00:31.035Z,-15654.94
2019-03-23T03:03:02.409Z,-15654.94
2019-03-23T03:05:33.828Z,-15654.94
2019-03-23T03:08:05.691Z,-15654.94
2019-03-23T03:10:43.943Z,-15654.94
2019-03-23T03:13:15.904Z,-15654.94
2019-03-23T03:15:47.359Z,-15654.94
2019-03-23T03:18:18.726Z,-15654.94
2019-03-23T03:20:50.145Z,-15654.94
2019-03-23T03:23:21.530Z,-15654.94
2019-03-23T03:25:52.875Z,-15654.94
2019-03-23T03:28:24.552Z,-15654.94
2019-03-23T03:30:56.032Z,-15654.94
2019-03-23T03:33:27.386Z,-15654.94
2019-03-23T03:35:58.887Z,-15654.94
2019-03-23T03:38:30.278Z,-15654.94
2019-03-23T03:41:01.832Z,-15654.94
2019-03-23T03:43:33.555Z,-15654.94
2019-03-23T03:46:05.155Z,-15654.94
2019-03-23T03:48:36.513Z,-15654.94
2019-03-23T03:51:08.214Z,-15654.94
2019-03-23T03:53:39.587Z,-15654.94
2019-03-23T03:56:10.948Z,-15654.94
2019-03-23T03:58:42.677Z,-15654.94
2019-03-23T04:01:14.119Z,-15654.94
2019-03-23T04:03:45.725Z,-15654.94
2019-03-23T04:06:17.116Z,-15654.94
2019-03-23T04:08:48.999Z,-15654.94
2019-03-23T04:11:20.340Z,-15654.94
2019-03-23T04:13:52.406Z,-15654.94
2019-03-23T04:16:24.284Z,-15654.94
2019-03-23T04:18:55.741Z,-15654.94
2019-03-23T04:21:27.387Z,-15654.94
2019-03-23T04:23:59.124Z,-15654.94
2019-03-23T04:26:30.598Z,-15654.94
2019-03-23T04:29:01.974Z,-15654.94
2019-03-23T04:31:33.333Z,-15654.94
2019-03-23T04:34:04.685Z,-15654.94
2019-03-23T04:36:36.093Z,-15654.94
2019-03-23T04:39:09.349Z,-15654.94
2019-03-23T04:41:41.347Z,-15654.94
2019-03-23T04:44:12.878Z,-15654.94
2019-03-23T04:46:44.671Z,-15654.94
2019-03-23T04:49:16.840Z,-15654.94
2019-03-23T04:51:48.549Z,-15654.94
2019-03-23T04:54:20.340Z,-15654.94
2019-03-23T04:56:51.786Z,-15654.94
2019-03-23T04:59:23.830Z,-15654.94
2019-03-23T05:01:55.308Z,-15654.94
2019-03-23T05:04:27.047Z,-15654.94
2019-03-23T05:06:58.511Z,-15654.94
2019-03-23T05:09:29.856Z,-15654.94
2019-03-23T05:12:01.315Z,-15654.94
2019-03-23T05:14:33.036Z,-15654.94
2019-03-23T05:17:04.520Z,-15654.94
2019-03-23T05:19:35.925Z,-15654.94
2019-03-23T05:22:07.301Z,-15654.94
2019-03-23T05:24:39.095Z,-15654.94
2019-03-23T05:27:10.568Z,-15654.94
2019-03-23T05:29:41.985Z,-15654.94
2019-03-23T05:32:13.353Z,-15654.94
2019-03-23T05:34:44.787Z,-15654.94
2019-03-23T05:37:16.063Z,-15654.94
2019-03-23T05:39:48.496Z,-15654.94
2019-03-23T05:42:20.500Z,-15654.94
2019-03-23T05:44:52.392Z,-15654.94
2019-03-23T05:47:23.729Z,-15654.94
2019-03-23T05:49:55.439Z,-15654.94
2019-03-23T05:52:26.732Z,-15654.94
2019-03-23T05:54:58.428Z,-15654.94
2019-03-23T05:57:29.836Z,-15654.94
2019-03-23T06:00:01.334Z,-15654.94
2019-03-23T06:02:33.054Z,-15654.94
2019-03-23T06:05:04.459Z,-15654.94
2019-03-23T06:07:35.807Z,-15654.94
2019-03-23T06:10:08.136Z,-15654.94
2019-03-23T06:12:39.485Z,-15654.94
2019-03-23T06:15:11.587Z,-15654.94
2019-03-23T06:17:42.946Z,-15654.94
2019-03-23T06:20:14.458Z,-15654.94
2019-03-23T06:22:45.908Z,-15654.94
2019-03-23T06:25:17.650Z,-15654.94
2019-03-23T06:27:48.994Z,-15654.94
2019-03-23T06:30:20.999Z,-15654.94
2019-03-23T06:32:52.751Z,-15654.94
2019-03-23T06:35:24.092Z,-15654.94
2019-03-23T06:37:55.950Z,-15654.94
2019-03-23T06:40:27.302Z,-15654.94
2019-03-23T06:42:59.973Z,-15654.94
2019-03-23T06:45:32.239Z,-15654.94
2019-03-23T06:48:04.080Z,-15654.94
2019-03-23T06:50:35.454Z,-15654.94
2019-03-23T06:53:07.421Z,-15654.94
2019-03-23T06:55:39.164Z,-15654.94
2019-03-23T06:58:10.606Z,-15654.94
2019-03-23T07:00:42.374Z,-15654.94
2019-03-23T07:03:13.824Z,-15654.94
2019-03-23T07:05:45.593Z,-15654.94
2019-03-23T07:08:17.411Z,-15654.94
2019-03-23T07:10:48.775Z,-15654.94
2019-03-23T07:13:20.233Z,-15654.94
2019-03-23T07:15:52.000Z,-15654.94
2019-03-23T07:18:23.714Z,-15654.94
2019-03-23T07:20:55.742Z,-15654.94
2019-03-23T07:23:27.107Z,-15654.94
2019-03-23T07:25:58.804Z,-15654.94
2019-03-23T07:28:30.160Z,-15654.94
2019-03-23T07:31:01.726Z,-15654.94
2019-03-23T07:33:33.502Z,-15654.94
2019-03-23T07:36:05.484Z,-15654.94
2019-03-23T07:38:37.204Z,-15654.94
2019-03-23T07:41:09.445Z,-15654.94
2019-03-23T07:43:41.449Z,-15654.94
2019-03-23T07:46:13.677Z,-15654.94
2019-03-23T07:48:45.441Z,-15654.94
2019-03-23T07:51:16.919Z,-15654.94
2019-03-23T07:53:48.575Z,-15654.94
2019-03-23T07:56:20.026Z,-15654.94
2019-03-23T07:58:51.830Z,-15654.94
2019-03-23T08:01:23.347Z,-15654.94
2019-03-23T08:03:55.460Z,-15654.94
2019-03-23T08:06:26.979Z,-15654.94
2019-03-23T08:08:58.396Z,-15654.94
2019-03-23T08:11:30.433Z,-15654.94
2019-03-23T08:14:01.790Z,-15654.94
2019-03-23T08:16:33.204Z,-15654.94
2019-03-23T08:19:04.885Z,-15654.94
2019-03-23T08:21:36.801Z,-15654.94
2019-03-23T08:24:08.238Z,-15654.94
2019-03-23T08:26:39.607Z,-15654.94
2019-03-23T08:29:11.022Z,-15654.94
2019-03-23T08:31:42.795Z,-15654.94
2019-03-23T08:34:14.253Z,-15654.94
2019-03-23T08:36:45.624Z,-15654.94
2019-03-23T08:39:18.634Z,-15654.94
2019-03-23T08:41:50.391Z,-15654.94
2019-03-23T08:44:22.468Z,-15654.94
2019-03-23T08:46:54.205Z,-15654.94
2019-03-23T08:49:25.693Z,-15654.94
2019-03-23T08:51:57.552Z,-15654.94
2019-03-23T08:54:29.406Z,-15654.94
2019-03-23T08:57:01.619Z,-15654.94
2019-03-23T08:59:33.049Z,-15654.94
2019-03-23T09:02:04.425Z,-15654.94
2019-03-23T09:04:35.878Z,-15654.94
2019-03-23T09:07:07.222Z,-15654.94
2019-03-23T09:09:38.964Z,-15654.94
2019-03-23T09:12:10.696Z,-15654.94
2019-03-23T09:14:42.196Z,-15654.94
2019-03-23T09:17:13.534Z,-15654.94
2019-03-23T09:19:44.954Z,-15654.94
2019-03-23T09:22:16.306Z,-15654.94
2019-03-23T09:24:47.655Z,-15654.94
2019-03-23T09:27:19.096Z,-15654.94
2019-03-23T09:29:51.222Z,-15654.94
2019-03-23T09:32:22.720Z,-15654.94
2019-03-23T09:34:54.615Z,-15654.94
2019-03-23T09:37:26.016Z,-15654.94
2019-03-23T09:39:58.744Z,-15654.94
2019-03-23T09:42:30.573Z,-15654.94
2019-03-23T09:45:02.493Z,-15654.94
2019-03-23T09:47:33.844Z,-15654.94
2019-03-23T09:50:06.467Z,-15654.94
2019-03-23T09:52:37.850Z,-15654.94
2019-03-23T09:55:09.995Z,-15654.94
2019-03-23T09:57:41.724Z,-15654.94
2019-03-23T10:00:13.298Z,-15654.94
2019-03-23T10:02:44.657Z,-15654.94
2019-03-23T10:05:16.480Z,-15654.94
2019-03-23T10:07:47.868Z,-15654.94
2019-03-23T10:10:22.147Z,-15654.94
2019-03-23T10:12:52.759Z,-15654.94
2019-03-23T10:15:24.260Z,-15654.94
2019-03-23T10:17:56.151Z,-15654.94
2019-03-23T10:20:29.084Z,-15654.94
2019-03-23T10:23:02.875Z,-15654.94
2019-03-23T10:25:35.846Z,-15654.94
2019-03-23T10:28:08.620Z,-15654.94
2019-03-23T10:30:40.977Z,-15654.94
2019-03-23T10:33:13.693Z,-15654.94
2019-03-23T10:35:45.050Z,-15654.94
2019-03-23T10:38:16.489Z,-15654.94
2019-03-23T10:40:49.214Z,-15654.94
2019-03-23T10:43:21.267Z,-15654.94
2019-03-23T10:45:53.236Z,-15654.94
2019-03-23T10:48:24.969Z,-15654.94
2019-03-23T10:50:56.862Z,-15654.94
2019-03-23T10:53:28.703Z,-15654.94
2019-03-23T10:56:00.399Z,-15654.94
2019-03-23T10:58:31.748Z,-15654.94
2019-03-23T11:01:03.153Z,-15654.94
2019-03-23T11:03:34.549Z,-15654.94
2019-03-23T11:06:06.411Z,-15654.94
2019-03-23T11:08:38.511Z,-15654.94
2019-03-23T11:11:10.286Z,-15654.94
2019-03-23T11:13:42.440Z,-15654.94
2019-03-23T11:16:14.261Z,-15654.94
2019-03-23T11:18:45.963Z,-15654.23
2019-03-23T11:21:17.399Z,-15654.23
2019-03-23T11:23:49.208Z,-11910.07
2019-03-23T11:26:21.186Z,-3681.97
2019-03-23T11:28:52.654Z,-7193.55
2019-03-23T11:31:24.002Z,-2591.41
2019-03-23T11:33:56.039Z,-5256.59
2019-03-23T11:36:27.807Z,2624.10
2019-03-23T11:38:59.583Z,11375.62
2019-03-23T11:41:31.327Z,16247.62
2019-03-23T11:44:03.722Z,17710.62
2019-03-23T11:46:35.075Z,34177.28
2019-03-23T11:49:06.515Z,36957.79
2019-03-23T11:51:38.286Z,53232.86
2019-03-23T11:54:09.757Z,74322.74
2019-03-23T11:56:41.138Z,60954.00
2019-03-23T11:59:12.899Z,79462.31
2019-03-23T12:01:51.435Z,82497.69
2019-03-23T12:04:17.656Z,82989.11
2019-03-23T12:06:49.550Z,81584.95
2019-03-23T12:09:21.570Z,82460.79
2019-03-23T12:11:53.377Z,83295.08
2019-03-23T12:14:25.496Z,52423.20
2019-03-23T12:16:57.262Z,83157.15
2019-03-23T12:19:28.925Z,83377.64
2019-03-23T12:22:00.290Z,77870.46
2019-03-23T12:24:32.025Z,82818.17
2019-03-23T12:27:03.699Z,75167.66
2019-03-23T12:29:35.557Z,83254.28
2019-03-23T12:32:07.398Z,83281.48
2019-03-23T12:34:38.830Z,83112.47
2019-03-23T12:37:10.219Z,83254.28
2019-03-23T12:39:41.548Z,83001.74
2019-03-23T12:42:13.016Z,83392.22
2019-03-23T12:44:44.683Z,83140.64
2019-03-23T12:47:16.134Z,82876.45
2019-03-23T12:49:47.888Z,82854.11
2019-03-23T12:52:19.803Z,82985.23
2019-03-23T12:54:51.474Z,82723.97
2019-03-23T12:57:22.779Z,82986.20
2019-03-23T12:59:54.521Z,83111.50
2019-03-23T13:02:26.590Z,83055.16
2019-03-23T13:04:58.323Z,82872.56
2019-03-23T13:07:30.200Z,82499.63
2019-03-23T13:10:02.015Z,82403.49
2019-03-23T13:12:34.081Z,82884.22
2019-03-23T13:15:06.282Z,82649.19
2019-03-23T13:17:38.058Z,82599.66
2019-03-23T13:20:11.404Z,82655.02
2019-03-23T13:22:43.417Z,82778.36
2019-03-23T13:25:15.485Z,82672.50
2019-03-23T13:27:46.864Z,82682.20
2019-03-23T13:30:18.716Z,82620.05
2019-03-23T13:32:51.165Z,82685.13
2019-03-23T13:35:22.648Z,82538.48
2019-03-23T13:37:54.663Z,82734.66
2019-03-23T13:40:27.063Z,82291.81
2019-03-23T13:42:59.112Z,82479.23
2019-03-23T13:45:42.258Z,82423.88
2019-03-23T13:48:05.804Z,82723.00
2019-03-23T13:50:37.264Z,82420.97
2019-03-23T13:53:09.029Z,82684.15
2019-03-23T13:55:40.366Z,82405.44
2019-03-23T13:58:13.347Z,82747.28
2019-03-23T14:00:44.694Z,82554.02
2019-03-23T14:03:16.682Z,82302.50
2019-03-23T14:05:48.989Z,82127.70
2019-03-23T14:08:20.799Z,81907.30
2019-03-23T14:10:52.219Z,82019.93
2019-03-23T14:13:23.893Z,82374.36
2019-03-23T14:15:55.320Z,82047.11
2019-03-23T14:18:27.086Z,82012.16
2019-03-23T14:20:58.790Z,82209.28
2019-03-23T14:23:30.081Z,82303.47
2019-03-23T14:26:01.459Z,82017.02
2019-03-23T14:28:32.820Z,82192.77
2019-03-23T14:31:05.165Z,81936.42
2019-03-23T14:33:36.467Z,82272.39
2019-03-23T14:36:08.495Z,82414.17
2019-03-23T14:38:40.168Z,82312.20
2019-03-23T14:41:11.692Z,82252.97
2019-03-23T14:43:43.905Z,82612.28
2019-03-23T14:46:15.638Z,82418.05
2019-03-23T14:48:46.985Z,82181.12
2019-03-23T14:51:18.420Z,82904.62
2019-03-23T14:53:50.465Z,82610.34
2019-03-23T14:56:22.533Z,82549.16
2019-03-23T14:58:54.213Z,82579.27
2019-03-23T15:01:26.051Z,82155.87
2019-03-23T15:03:58.062Z,82552.07
2019-03-23T15:06:29.559Z,82413.20
2019-03-23T15:09:01.642Z,82679.30
2019-03-23T15:11:33.105Z,82231.61
2019-03-23T15:14:04.638Z,82115.09
2019-03-23T15:16:36.411Z,82144.22
2019-03-23T15:19:08.402Z,82193.73
2019-03-23T15:21:39.737Z,82312.20
2019-03-23T15:24:11.178Z,82155.87
2019-03-23T15:26:42.506Z,82292.78
2019-03-23T15:29:13.843Z,82090.81
2019-03-23T15:31:46.344Z,82023.81
2019-03-23T15:34:17.709Z,81972.34
2019-03-23T15:36:49.470Z,82006.33
2019-03-23T15:39:20.862Z,82552.07
2019-03-23T15:41:53.380Z,82308.33
2019-03-23T15:44:25.416Z,82086.92
2019-03-23T15:46:56.980Z,81921.86
2019-03-23T15:49:28.328Z,82232.58
2019-03-23T15:51:59.807Z,82634.62
2019-03-23T15:54:31.259Z,82622.00
2019-03-23T15:57:02.938Z,82896.84
2019-03-23T15:59:34.771Z,82608.40
2019-03-23T16:02:06.393Z,82379.22
2019-03-23T16:04:37.891Z,82530.70
2019-03-23T16:07:09.688Z,82483.13
2019-03-23T16:09:42.622Z,82516.14
2019-03-23T16:12:13.957Z,82741.45
2019-03-23T16:14:45.455Z,82708.43
2019-03-23T16:17:17.178Z,82789.05
2019-03-23T16:19:48.635Z,82816.23
2019-03-23T16:22:19.971Z,82768.64
2019-03-23T16:24:51.713Z,82794.87
2019-03-23T16:27:23.065Z,83209.60
2019-03-23T16:29:54.429Z,83420.39
2019-03-23T16:32:25.995Z,83851.70
2019-03-23T16:34:57.607Z,83119.27
2019-03-23T16:37:28.972Z,82345.22
2019-03-23T16:40:01.132Z,69429.82
2019-03-23T16:42:32.853Z,40082.02
2019-03-23T16:45:04.862Z,48654.76
2019-03-23T16:47:36.467Z,24550.32
2019-03-23T16:50:10.073Z,34813.06
2019-03-23T16:52:41.498Z,49747.24
2019-03-23T16:55:13.732Z,45762.73
2019-03-23T16:57:45.096Z,23523.28
2019-03-23T17:00:22.730Z,22821.90
2019-03-23T17:02:55.600Z,22170.28
2019-03-23T17:05:26.958Z,12105.96
2019-03-23T17:07:58.336Z,10037.08
2019-03-23T17:10:29.843Z,5538.69
2019-03-23T17:13:01.207Z,4202.52
2019-03-23T17:15:32.535Z,-287.90
2019-03-23T17:18:04.081Z,-4408.82
2019-03-23T17:20:35.902Z,-9854.99
2019-03-23T17:23:07.570Z,-9734.07
2019-03-23T17:25:43.563Z,-11789.22
2019-03-23T17:28:15.698Z,-10701.36
2019-03-23T17:30:47.561Z,-11305.77
2019-03-23T17:33:20.237Z,-13601.52
2019-03-23T17:35:51.944Z,-15412.80
2019-03-23T17:38:24.187Z,-15654.94
2019-03-23T17:40:55.568Z,-15654.94
2019-03-23T17:43:27.537Z,-15654.94
2019-03-23T17:45:59.235Z,-15654.94
2019-03-23T17:48:31.102Z,-15654.94
2019-03-23T17:51:02.914Z,-15654.94
2019-03-23T17:53:34.268Z,-15654.94
2019-03-23T17:56:06.469Z,-15654.94
2019-03-23T17:58:37.987Z,-15654.94
2019-03-23T18:01:19.040Z,-15654.94
2019-03-23T18:03:44.717Z,-15654.94
2019-03-23T18:06:16.235Z,-15654.94
2019-03-23T18:08:47.607Z,-15654.94
2019-03-23T18:11:19.529Z,-15654.94
2019-03-23T18:13:51.264Z,-15654.94
2019-03-23T18:16:23.087Z,-15654.94
2019-03-23T18:18:54.467Z,-15654.94
2019-03-23T18:21:27.364Z,-15654.94
2019-03-23T18:23:59.130Z,-15654.94
2019-03-23T18:26:31.786Z,-15654.94
2019-03-23T18:29:03.909Z,-15654.94
2019-03-23T18:31:35.303Z,-15654.94
2019-03-23T18:34:07.063Z,-15654.94
2019-03-23T18:36:38.437Z,-15654.94
2019-03-23T18:39:09.966Z,-15654.94
2019-03-23T18:41:41.629Z,-15654.94
2019-03-23T18:44:16.463Z,-15654.94
2019-03-23T18:46:46.462Z,-15654.94
2019-03-23T18:49:18.029Z,-15654.94
2019-03-23T18:51:49.748Z,-15654.94
2019-03-23T18:54:21.243Z,-15654.94
2019-03-23T18:56:52.952Z,-15654.94
2019-03-23T18:59:27.074Z,-15654.94
2019-03-23T19:01:57.969Z,-15654.94
2019-03-23T19:04:29.897Z,-15654.94
2019-03-23T19:07:01.934Z,-15654.94
2019-03-23T19:09:33.840Z,-15654.94
2019-03-23T19:12:05.185Z,-15654.94
2019-03-23T19:14:36.613Z,-15654.94
2019-03-23T19:17:08.521Z,-15654.94
2019-03-23T19:19:41.050Z,-15654.94
2019-03-23T19:22:12.805Z,-15654.94
2019-03-23T19:24:45.166Z,-15654.94
2019-03-23T19:27:16.696Z,-15654.94
2019-03-23T19:29:48.918Z,-15654.94
2019-03-23T19:32:20.923Z,-15654.94
2019-03-23T19:34:52.298Z,-15654.94
2019-03-23T19:37:24.520Z,-15654.94
2019-03-23T19:39:55.885Z,-15654.94
2019-03-23T19:42:27.774Z,-15654.94
2019-03-23T19:44:59.149Z,-15654.94
2019-03-23T19:47:30.603Z,-15654.94
2019-03-23T19:50:02.337Z,-15654.94
2019-03-23T19:52:34.852Z,-15654.94
2019-03-23T19:55:06.787Z,-15654.94
2019-03-23T19:57:38.357Z,-15654.94
2019-03-23T20:00:10.466Z,-15654.94
2019-03-23T20:02:42.382Z,-15654.94
2019-03-23T20:05:13.763Z,-15654.94
2019-03-23T20:07:45.278Z,-15654.94
2019-03-23T20:10:17.142Z,-15654.94
2019-03-23T20:12:48.579Z,-15654.94
2019-03-23T20:15:20.716Z,-15654.94
2019-03-23T20:17:52.520Z,-15654.94
2019-03-23T20:20:23.912Z,-15654.94
2019-03-23T20:22:55.629Z,-15654.94
2019-03-23T20:25:26.990Z,-15654.94
2019-03-23T20:27:59.402Z,-15654.94
2019-03-23T20:30:31.094Z,-15654.94
2019-03-23T20:33:02.464Z,-15654.94
2019-03-23T20:35:34.507Z,-15654.94
2019-03-23T20:38:06.395Z,-15654.94
2019-03-23T20:40:37.797Z,-15654.94
2019-03-23T20:43:09.363Z,-15654.94
2019-03-23T20:45:40.710Z,-15654.94
2019-03-23T20:48:12.667Z,-15654.94
2019-03-23T20:50:44.761Z,-15654.94
2019-03-23T20:53:19.147Z,-15654.94
2019-03-23T20:55:50.515Z,-15654.94
2019-03-23T20:58:22.496Z,-15654.94
2019-03-23T21:00:54.151Z,-15654.94
2019-03-23T21:03:25.601Z,-15654.94
2019-03-23T21:05:56.970Z,-15654.94
2019-03-23T21:08:28.873Z,-15654.94
2019-03-23T21:11:00.940Z,-15654.94
2019-03-23T21:13:32.520Z,-15654.94
2019-03-23T21:16:04.225Z,-15654.94
2019-03-23T21:18:36.128Z,-15654.94
2019-03-23T21:21:07.847Z,-15654.94
2019-03-23T21:23:39.230Z,-15654.94
2019-03-23T21:26:10.590Z,-15654.94
2019-03-23T21:28:42.552Z,-15654.94
2019-03-23T21:31:14.258Z,-15654.94
2019-03-23T21:33:46.535Z,-15654.94
2019-03-23T21:36:18.028Z,-15654.94
2019-03-23T21:38:49.769Z,-15654.94
2019-03-23T21:41:21.322Z,-15654.94
2019-03-23T21:43:52.682Z,-15654.94
2019-03-23T21:46:24.048Z,-15654.94
2019-03-23T21:48:55.415Z,-15654.94
2019-03-23T21:51:27.439Z,-15654.94
2019-03-23T21:53:59.813Z,-15654.94
2019-03-23T21:56:31.170Z,-15654.94
2019-03-23T21:59:02.624Z,-15654.94
2019-03-23T22:01:34.131Z,-15654.94
2019-03-23T22:04:05.719Z,-15654.94
2019-03-23T22:06:37.564Z,-15654.94
2019-03-23T22:09:10.509Z,-15654.94
2019-03-23T22:11:43.135Z,-15654.94
2019-03-23T22:14:14.969Z,-15654.94
2019-03-23T22:16:46.635Z,-15654.94
2019-03-23T22:19:18.309Z,-15654.94
2019-03-23T22:21:50.813Z,-15654.94
2019-03-23T22:24:23.130Z,-15654.94
2019-03-23T22:26:54.555Z,-15654.94
2019-03-23T22:29:27.024Z,-15654.94
2019-03-23T22:31:58.689Z,-15654.94
2019-03-23T22:34:30.450Z,-15654.94
2019-03-23T22:37:02.363Z,-15654.94
2019-03-23T22:39:34.031Z,-15654.94
2019-03-23T22:42:05.401Z,-15654.94
2019-03-23T22:44:37.209Z,-15654.94
2019-03-23T22:47:09.134Z,-15654.94
2019-03-23T22:49:40.629Z,-15654.94
2019-03-23T22:52:11.979Z,-15654.94
2019-03-23T22:54:43.793Z,-15654.94
2019-03-23T22:57:15.249Z,-15654.94
2019-03-23T22:59:46.582Z,-15654.94
2019-03-23T23:02:18.663Z,-15654.94
2019-03-23T23:04:50.142Z,-15654.94
2019-03-23T23:07:22.176Z,-15654.94
2019-03-23T23:09:53.560Z,-15654.94
2019-03-23T23:12:25.285Z,-15654.94
2019-03-23T23:15:04.359Z,-15654.94
2019-03-23T23:17:30.281Z,-15654.94
2019-03-23T23:20:01.822Z,-15654.94
2019-03-23T23:22:33.532Z,-15654.94
2019-03-23T23:25:05.770Z,-15654.94
2019-03-23T23:27:38.354Z,-15654.94
2019-03-23T23:30:10.730Z,-15654.94
2019-03-23T23:32:42.518Z,-15654.94
2019-03-23T23:35:14.195Z,-15654.94
2019-03-23T23:37:45.560Z,-15654.94
2019-03-23T23:40:18.749Z,-15654.94
2019-03-23T23:42:50.302Z,-15654.94
2019-03-23T23:45:21.988Z,-15654.94
2019-03-23T23:47:53.340Z,-15654.94
2019-03-23T23:50:25.195Z,-15654.94
2019-03-23T23:52:56.924Z,-15654.94
2019-03-23T23:55:29.371Z,-15654.94
2019-03-23T23:58:00.748Z,-15654.94
